Portales, New Mexico
Current Conditions -  °F | °C
As of 6:58 PM on Tuesday 21 Oct 2014 (Local Time) from KCVS Reporting Station
Broken Clouds Broken Clouds  
Wind Chill: 59°   Ceiling: 9000
Heat Index: 59°   Visibility: 10mi
Dew Point: 56°   Wind: 3mph
Humidity: 90%   Direction: 210°SSW
Pressure: 30.09"   Gusts: NA
Location:  34.18°N, 103.33°W
Report Text: KCVS 220058Z 21003KT 10SM BKN090 15/13 A3009 RMK AO2A RAE2356 SLP160 T01500134 $
Loading
Personal Weather Stations






























Interactive Weather Map
Tropical Storm Tracking
New forecast layout! Learn more

10-Day Weather Forecast

Advertisements
Track Severe Weather on mobile